Airfield :
LOGIN :

Register | Disclaimer

   EN    FR    IT 

 










Legend :    VFR   Marginal VFR   IFR   Intensive IFR   Very Intensive IFR
Visi :
Ceiling :
>= 8 km
>= 3000ft
5 to 8 km
1000 to 3000 ft
1500m to 5 km
500 to 1000 ft
800 to 1500m
200 to 500 ft
< 800m
< 200 ft
Symbols :   Thunderstorms  Fog  Heavy snow  Heavy precipitations  Wind > 20 kt
SIGMETs :     Misc.  Thunderstorms  Icing  Turbulence  Mountain Waves  Volcanic Ashes






- Airport Elevation : 522 ft
- IATA code : CRV


LIBC - Santa Anna - Crotone

CURRENT METAR :
  • 221250Z 20013KT CAVOK 26/13 Q1013

EXPIRED METARs :
  • 221150Z 16007KT 110V200 CAVOK 28/13 Q1013
  • 221050Z 15007KT 110V200 CAVOK 28/12 Q1013

TAF TAF LIBC
Valid from the 22 at 12:00 until the 23 at 12:00 UTC


221100Z 2212/2312 19010KT CAVOK
BECMG 2213/2215 21016G26KT
BECMG 2220/2222 VRB05KT
BECMG 2308/2310 20012KT



MET'MAP, your aeronautical weather chart ! - Copyright ORBIFLY December 2007 - Disclaimer

ORBIFLY MET'MAP TEAM :

Programming & Development : Alexandra Zaïnal
Original concept : Baudouin d'Aumeries
Technical & hardware support : Manuel Goepfert
Assistance : Marc-Olivier Méhu

Contact : metmap@orbifly.com




SOURCES & CREDITS :

   NOAA